Time;durP1;ratioP1;P1;durP2;ratioP2;P2;SDS_P1;SDS_P2;PMS_P1;PMS_P2;Temp;Humidity;BMP_temperature;BMP_pressure;BME280_temperature;BME280_humidity;BME280_pressure;Samples;Min_cycle;Max_cycle;Signal;HPM_P1;HPM_P2
2022/03/10 00:02:26;;;;;;;9.33;7.67;;;;;;;;;;6224289;28;20229;-69
2022/03/10 00:05:47;;;;;;;9.17;6.97;;;;;;;;;;6222949;28;20228;-70
2022/03/10 00:09:09;;;;;;;11.70;9.00;;;;;;;;;;6228313;28;20260;-70
2022/03/10 00:12:30;;;;;;;8.43;7.57;;;;;;;;;;6225857;28;20247;-69
2022/03/10 00:15:50;;;;;;;9.50;7.03;;;;;;;;;;6217895;28;20277;-70
2022/03/10 00:19:12;;;;;;;8.30;7.33;;;;;;;;;;6219458;28;20225;-70
2022/03/10 00:22:43;;;;;;;8.00;7.20;;;;;;;;;;6220123;28;20233;-70
2022/03/10 00:26:05;;;;;;;8.57;7.40;;;;;;;;;;6222748;28;20260;-69
2022/03/10 00:29:26;;;;;;;8.87;7.17;;;;;;;;;;6221173;28;20233;-69
2022/03/10 00:32:48;;;;;;;8.77;7.97;;;;;;;;;;6219353;28;20259;-71
2022/03/10 00:36:09;;;;;;;7.63;6.80;;;;;;;;;;6216248;28;20229;-69
2022/03/10 00:39:30;;;;;;;9.07;7.50;;;;;;;;;;6222938;28;20500;-70
2022/03/10 00:42:52;;;;;;;9.97;8.97;;;;;;;;;;6219426;28;20241;-70
2022/03/10 00:46:13;;;;;;;9.67;8.67;;;;;;;;;;6217805;28;20220;-71
2022/03/10 00:49:34;;;;;;;8.87;7.87;;;;;;;;;;6219710;28;20237;-70
2022/03/10 00:52:55;;;;;;;9.13;7.60;;;;;;;;;;6225038;28;20233;-70
2022/03/10 00:56:15;;;;;;;9.40;8.17;;;;;;;;;;6218102;28;20225;-69
2022/03/10 00:59:38;;;;;;;7.63;6.93;;;;;;;;;;6222887;28;20224;-69
2022/03/10 01:02:59;;;;;;;7.63;6.93;;;;;;;;;;6219312;28;20237;-70
2022/03/10 01:06:19;;;;;;;8.37;7.47;;;;;;;;;;6221888;28;20526;-71
2022/03/10 01:09:40;;;;;;;7.63;6.93;;;;;;;;;;6220485;28;20232;-70
2022/03/10 01:13:01;;;;;;;7.83;6.90;;;;;;;;;;6224715;28;20228;-70
2022/03/10 01:16:24;;;;;;;8.10;7.40;;;;;;;;;;6216661;28;20221;-69
2022/03/10 01:19:45;;;;;;;9.77;7.47;;;;;;;;;;6223458;28;20232;-70
2022/03/10 01:23:06;;;;;;;11.17;8.03;;;;;;;;;;6227233;28;20236;-71
2022/03/10 01:26:27;;;;;;;8.40;7.50;;;;;;;;;;6224888;28;20228;-69
2022/03/10 01:29:47;;;;;;;8.93;7.97;;;;;;;;;;6226346;28;20216;-70
2022/03/10 01:33:10;;;;;;;7.43;6.73;;;;;;;;;;6220852;28;20611;-70
2022/03/10 01:36:31;;;;;;;8.90;8.00;;;;;;;;;;6221654;28;20228;-70
2022/03/10 01:39:51;;;;;;;8.57;7.77;;;;;;;;;;6216016;28;20276;-68
2022/03/10 01:43:12;;;;;;;8.37;7.47;;;;;;;;;;6225738;28;20229;-70
2022/03/10 01:46:33;;;;;;;8.90;8.00;;;;;;;;;;6225218;28;20338;-70
2022/03/10 01:49:55;;;;;;;8.43;7.63;;;;;;;;;;6220680;28;20229;-70
2022/03/10 01:53:16;;;;;;;8.23;7.43;;;;;;;;;;6222403;28;20513;-70
2022/03/10 01:56:37;;;;;;;9.53;8.53;;;;;;;;;;6220919;28;20448;-69
2022/03/10 01:59:57;;;;;;;11.27;8.40;;;;;;;;;;6225744;28;20229;-68
2022/03/10 02:03:18;;;;;;;10.40;8.53;;;;;;;;;;6225410;28;20567;-69
2022/03/10 02:06:40;;;;;;;9.03;8.13;;;;;;;;;;6225508;28;20599;-69
2022/03/10 02:10:19;;;;;;;8.93;8.03;;;;;;;;;;6219327;28;20228;-69
2022/03/10 02:13:40;;;;;;;12.20;9.07;;;;;;;;;;6220757;28;20606;-70
2022/03/10 02:20:39;;;;;;;9.43;8.43;;;;;;;;;;6215896;28;20248;-70
2022/03/10 02:24:01;;;;;;;8.50;7.70;;;;;;;;;;6224308;28;20233;-69
2022/03/10 02:27:24;;;;;;;9.87;8.87;;;;;;;;;;6226980;28;20333;-69
2022/03/10 02:30:45;;;;;;;10.67;9.60;;;;;;;;;;6219918;28;20237;-69
2022/03/10 02:34:06;;;;;;;12.13;8.27;;;;;;;;;;6226683;28;20228;-69
2022/03/10 02:37:26;;;;;;;10.67;8.80;;;;;;;;;;6223038;28;20229;-69
2022/03/10 02:40:49;;;;;;;11.27;9.13;;;;;;;;;;6221061;28;20248;-69
2022/03/10 02:44:10;;;;;;;11.97;9.53;;;;;;;;;;6223320;28;20233;-70
2022/03/10 02:47:30;;;;;;;10.97;9.93;;;;;;;;;;6223498;28;20260;-69
2022/03/10 02:50:51;;;;;;;11.40;9.97;;;;;;;;;;6224517;28;20236;-70
2022/03/10 02:54:12;;;;;;;10.67;9.57;;;;;;;;;;6220915;28;20240;-70
2022/03/10 02:57:34;;;;;;;13.80;10.67;;;;;;;;;;6226980;28;20791;-70
2022/03/10 03:00:55;;;;;;;11.00;9.90;;;;;;;;;;6213220;28;20237;-70
2022/03/10 03:04:16;;;;;;;12.80;11.40;;;;;;;;;;6229228;28;20307;-70
2022/03/10 03:07:37;;;;;;;14.73;10.50;;;;;;;;;;6220894;28;20256;-70
2022/03/10 03:10:58;;;;;;;13.13;11.23;;;;;;;;;;6222634;28;20511;-68
2022/03/10 03:14:23;;;;;;;11.70;10.00;;;;;;;;;;6225235;28;20713;-70
2022/03/10 03:17:43;;;;;;;13.53;10.33;;;;;;;;;;6222211;28;20236;-69
2022/03/10 03:21:04;;;;;;;12.07;10.80;;;;;;;;;;6219928;28;20232;-70
2022/03/10 03:24:25;;;;;;;12.07;10.13;;;;;;;;;;6223720;28;20225;-70
2022/03/10 03:27:46;;;;;;;11.23;9.77;;;;;;;;;;6226573;28;20228;-69
2022/03/10 03:31:09;;;;;;;10.60;9.50;;;;;;;;;;6225566;28;20237;-69
2022/03/10 03:34:30;;;;;;;10.80;9.83;;;;;;;;;;6229876;28;20236;-70
2022/03/10 03:37:51;;;;;;;11.50;10.30;;;;;;;;;;6223336;28;20230;-70
2022/03/10 03:41:11;;;;;;;10.37;9.03;;;;;;;;;;6221651;28;20232;-69
2022/03/10 03:44:32;;;;;;;9.73;8.73;;;;;;;;;;6217609;28;20255;-69
2022/03/10 03:47:55;;;;;;;10.60;9.27;;;;;;;;;;6222723;28;20241;-70
2022/03/10 03:51:15;;;;;;;10.00;9.00;;;;;;;;;;6217629;28;20225;-69
2022/03/10 03:54:37;;;;;;;10.10;9.03;;;;;;;;;;6219989;28;20224;-70
2022/03/10 03:57:58;;;;;;;12.87;10.17;;;;;;;;;;6224743;28;20753;-70
2022/03/10 04:01:19;;;;;;;9.27;8.27;;;;;;;;;;6220476;28;20304;-69
2022/03/10 04:04:41;;;;;;;11.73;9.03;;;;;;;;;;6218862;28;20229;-69
2022/03/10 04:08:02;;;;;;;10.90;9.50;;;;;;;;;;6223511;28;20260;-70
2022/03/10 04:11:23;;;;;;;26.50;23.80;;;;;;;;;;6220594;28;20229;-70
2022/03/10 04:14:44;;;;;;;14.67;13.23;;;;;;;;;;6225098;28;20229;-71
2022/03/10 04:18:05;;;;;;;10.73;9.63;;;;;;;;;;6222364;28;20277;-70
2022/03/10 04:21:27;;;;;;;11.87;9.47;;;;;;;;;;6225013;28;20228;-70
2022/03/10 04:24:48;;;;;;;11.17;9.23;;;;;;;;;;6218191;28;20572;-69
2022/03/10 04:28:09;;;;;;;10.70;9.67;;;;;;;;;;6224737;28;20233;-69
2022/03/10 04:31:30;;;;;;;11.33;10.10;;;;;;;;;;6217688;28;20233;-69
2022/03/10 04:34:51;;;;;;;11.67;10.57;;;;;;;;;;6217587;28;20249;-71
2022/03/10 04:38:13;;;;;;;12.60;11.50;;;;;;;;;;6219358;28;20237;-70
2022/03/10 04:41:35;;;;;;;10.60;9.50;;;;;;;;;;6219548;28;20233;-70
2022/03/10 04:44:55;;;;;;;10.37;9.37;;;;;;;;;;6219627;28;20225;-70
2022/03/10 04:48:16;;;;;;;11.73;10.07;;;;;;;;;;6221272;28;20229;-70
2022/03/10 04:51:37;;;;;;;14.47;12.63;;;;;;;;;;6217344;28;20233;-70
2022/03/10 04:54:59;;;;;;;12.73;10.83;;;;;;;;;;6223046;28;20233;-69
2022/03/10 04:58:19;;;;;;;12.77;11.57;;;;;;;;;;6217979;28;20228;-70
2022/03/10 05:01:40;;;;;;;11.53;10.27;;;;;;;;;;6219025;28;20625;-69
2022/03/10 05:05:01;;;;;;;12.63;11.43;;;;;;;;;;6218137;28;20233;-69
2022/03/10 05:08:22;;;;;;;12.63;10.73;;;;;;;;;;6220606;28;20236;-71
2022/03/10 05:11:44;;;;;;;13.97;12.47;;;;;;;;;;6778279;22;20219;-70
2022/03/10 05:15:06;;;;;;;12.10;10.43;;;;;;;;;;6177627;28;20614;-70
2022/03/10 05:18:26;;;;;;;11.80;10.60;;;;;;;;;;6180043;28;20226;-70
2022/03/10 05:21:47;;;;;;;11.03;9.93;;;;;;;;;;6180556;28;20238;-69
2022/03/10 05:25:09;;;;;;;15.03;11.47;;;;;;;;;;6172887;28;20226;-71
2022/03/10 05:28:31;;;;;;;12.97;10.93;;;;;;;;;;6178453;28;20253;-71
2022/03/10 05:31:51;;;;;;;16.57;12.67;;;;;;;;;;6180408;28;20221;-70
2022/03/10 05:35:15;;;;;;;14.77;11.33;;;;;;;;;;6180410;28;20234;-70
2022/03/10 05:38:35;;;;;;;13.67;11.27;;;;;;;;;;6175860;28;20234;-69
2022/03/10 05:41:56;;;;;;;12.47;11.17;;;;;;;;;;6181837;28;20225;-70
2022/03/10 05:45:20;;;;;;;14.30;11.63;;;;;;;;;;6181163;28;20238;-69
2022/03/10 05:48:41;;;;;;;14.13;10.53;;;;;;;;;;6183168;28;20245;-69
2022/03/10 05:52:03;;;;;;;13.77;12.00;;;;;;;;;;6181293;28;20242;-70
2022/03/10 05:55:24;;;;;;;12.27;11.07;;;;;;;;;;6178631;28;20320;-70
2022/03/10 05:58:45;;;;;;;14.03;10.17;;;;;;;;;;6179247;28;20336;-70
2022/03/10 06:02:07;;;;;;;13.23;11.60;;;;;;;;;;6176829;28;20610;-70
2022/03/10 06:05:28;;;;;;;12.90;11.03;;;;;;;;;;6175957;28;22044;-70
2022/03/10 06:08:49;;;;;;;14.93;11.43;;;;;;;;;;6179919;28;20230;-70
2022/03/10 06:12:10;;;;;;;11.97;10.50;;;;;;;;;;6178372;28;20261;-70
2022/03/10 06:15:30;;;;;;;12.80;11.43;;;;;;;;;;6169980;28;20358;-70
2022/03/10 06:18:53;;;;;;;13.47;11.67;;;;;;;;;;6176276;28;20222;-70
2022/03/10 06:22:16;;;;;;;14.63;13.17;;;;;;;;;;6167720;28;21543;-71
2022/03/10 06:25:37;;;;;;;16.33;12.00;;;;;;;;;;6173747;28;20321;-71
2022/03/10 06:28:58;;;;;;;13.67;12.03;;;;;;;;;;6186807;28;20313;-71
2022/03/10 06:32:19;;;;;;;17.93;11.93;;;;;;;;;;6186444;28;20797;-71
2022/03/10 06:35:42;;;;;;;13.57;11.27;;;;;;;;;;6188071;28;20229;-71
2022/03/10 06:39:03;;;;;;;15.53;12.20;;;;;;;;;;6186113;28;20241;-71
2022/03/10 06:42:24;;;;;;;12.27;11.00;;;;;;;;;;6189002;28;20222;-71
2022/03/10 06:45:44;;;;;;;14.30;11.93;;;;;;;;;;6196313;28;20226;-70
2022/03/10 06:49:05;;;;;;;15.67;12.80;;;;;;;;;;6178534;28;20612;-71
2022/03/10 06:52:31;;;;;;;16.97;13.27;;;;;;;;;;6188842;28;20238;-71
2022/03/10 06:55:52;;;;;;;13.53;11.63;;;;;;;;;;6183958;28;20241;-71
2022/03/10 06:59:13;;;;;;;14.80;12.30;;;;;;;;;;6187782;28;20238;-71
2022/03/10 07:02:34;;;;;;;14.83;13.03;;;;;;;;;;6188120;28;20237;-71
2022/03/10 07:05:54;;;;;;;13.30;11.47;;;;;;;;;;6195328;28;20631;-71
2022/03/10 07:09:18;;;;;;;15.37;11.83;;;;;;;;;;6184911;28;20580;-69
2022/03/10 07:12:40;;;;;;;13.57;12.20;;;;;;;;;;6188946;28;20229;-69
2022/03/10 07:16:01;;;;;;;13.57;12.17;;;;;;;;;;6184063;28;20234;-70
2022/03/10 07:19:22;;;;;;;15.83;12.63;;;;;;;;;;6186951;28;20269;-70
2022/03/10 07:22:43;;;;;;;14.60;12.63;;;;;;;;;;6186734;28;20234;-72
2022/03/10 07:26:05;;;;;;;15.23;11.87;;;;;;;;;;6193970;28;20234;-72
2022/03/10 07:29:25;;;;;;;13.27;10.80;;;;;;;;;;6191710;28;20242;-70
2022/03/10 07:32:47;;;;;;;15.40;12.70;;;;;;;;;;6189083;28;20861;-71
2022/03/10 07:36:08;;;;;;;12.60;11.30;;;;;;;;;;6174912;28;20258;-70
2022/03/10 07:39:29;;;;;;;12.57;11.23;;;;;;;;;;6176479;28;20230;-72
2022/03/10 07:42:51;;;;;;;17.53;12.87;;;;;;;;;;6183807;28;20226;-70
2022/03/10 07:46:12;;;;;;;15.10;12.23;;;;;;;;;;6174303;28;20222;-71
2022/03/10 07:49:33;;;;;;;13.33;11.20;;;;;;;;;;6176114;28;20226;-71
2022/03/10 07:52:54;;;;;;;16.00;12.13;;;;;;;;;;6177965;28;20221;-69
2022/03/10 07:56:15;;;;;;;18.00;14.03;;;;;;;;;;6175974;28;20248;-72
2022/03/10 07:59:37;;;;;;;13.90;11.40;;;;;;;;;;6178125;28;20230;-73
2022/03/10 08:02:58;;;;;;;13.37;11.23;;;;;;;;;;6176592;28;20234;-71
2022/03/10 08:06:19;;;;;;;14.20;11.03;;;;;;;;;;6169917;28;20238;-69
2022/03/10 08:09:41;;;;;;;16.37;11.93;;;;;;;;;;6178185;28;20320;-70
2022/03/10 08:13:01;;;;;;;17.77;12.67;;;;;;;;;;6181261;28;20226;-67
2022/03/10 08:16:23;;;;;;;16.83;13.37;;;;;;;;;;6177383;28;21872;-69
2022/03/10 08:19:44;;;;;;;13.93;12.47;;;;;;;;;;6180198;28;20636;-70
2022/03/10 08:23:05;;;;;;;15.57;12.07;;;;;;;;;;6181993;28;20245;-70
2022/03/10 08:26:26;;;;;;;14.07;11.73;;;;;;;;;;6182422;28;20267;-69
2022/03/10 08:29:47;;;;;;;12.53;11.23;;;;;;;;;;6179206;28;20218;-71
2022/03/10 08:33:09;;;;;;;13.60;12.17;;;;;;;;;;6181130;28;20599;-71
2022/03/10 08:36:31;;;;;;;16.47;13.00;;;;;;;;;;6182590;28;20621;-71
2022/03/10 08:39:53;;;;;;;14.30;11.10;;;;;;;;;;6179394;28;20793;-69
2022/03/10 08:43:15;;;;;;;15.73;11.17;;;;;;;;;;6178307;28;20615;-71
2022/03/10 08:46:36;;;;;;;12.97;10.73;;;;;;;;;;6180444;28;20628;-69
2022/03/10 08:49:58;;;;;;;15.30;11.77;;;;;;;;;;6177076;28;20234;-71
2022/03/10 08:53:19;;;;;;;15.80;12.63;;;;;;;;;;6179279;28;20257;-70
2022/03/10 08:56:40;;;;;;;12.13;10.73;;;;;;;;;;6178585;28;20226;-70
2022/03/10 09:00:02;;;;;;;13.10;11.70;;;;;;;;;;6173919;28;20614;-71
2022/03/10 09:03:23;;;;;;;13.23;11.10;;;;;;;;;;6175021;28;20229;-71
2022/03/10 09:06:45;;;;;;;11.63;10.27;;;;;;;;;;6177884;28;20246;-69
2022/03/10 09:10:07;;;;;;;11.97;10.63;;;;;;;;;;6171741;28;20619;-73
2022/03/10 09:13:28;;;;;;;13.70;11.23;;;;;;;;;;6177662;28;20229;-70
2022/03/10 09:16:51;;;;;;;14.27;11.40;;;;;;;;;;6177578;28;20330;-73
2022/03/10 09:20:13;;;;;;;14.00;11.23;;;;;;;;;;6171008;28;20279;-71
2022/03/10 09:23:35;;;;;;;12.17;10.80;;;;;;;;;;6172421;28;20234;-70
2022/03/10 09:26:56;;;;;;;11.60;10.40;;;;;;;;;;6179433;28;20230;-70
2022/03/10 09:30:17;;;;;;;11.37;10.10;;;;;;;;;;6177537;28;20689;-69
2022/03/10 09:33:38;;;;;;;12.93;11.60;;;;;;;;;;6174817;28;20237;-70
2022/03/10 09:36:59;;;;;;;11.90;10.60;;;;;;;;;;6174179;28;20630;-72
2022/03/10 09:40:21;;;;;;;13.60;11.47;;;;;;;;;;6174300;28;20311;-70
2022/03/10 09:43:42;;;;;;;11.87;9.87;;;;;;;;;;6177749;28;20992;-70
2022/03/10 09:47:04;;;;;;;12.47;10.63;;;;;;;;;;6178562;28;20258;-67
2022/03/10 09:50:25;;;;;;;12.67;10.10;;;;;;;;;;6180115;28;20237;-68
2022/03/10 09:53:46;;;;;;;13.50;11.70;;;;;;;;;;6180090;28;20226;-70
2022/03/10 09:57:09;;;;;;;13.43;10.27;;;;;;;;;;6177944;28;20663;-70
2022/03/10 10:00:29;;;;;;;11.63;9.90;;;;;;;;;;6178245;28;20324;-69
2022/03/10 10:03:50;;;;;;;10.17;9.10;;;;;;;;;;6184365;28;20324;-70
2022/03/10 10:07:12;;;;;;;10.57;9.53;;;;;;;;;;6181150;28;20229;-69
2022/03/10 10:10:35;;;;;;;13.53;10.27;;;;;;;;;;6185335;28;20226;-69
2022/03/10 10:13:58;;;;;;;11.67;10.47;;;;;;;;;;6181456;28;20234;-70
2022/03/10 10:17:26;;;;;;;10.30;9.30;;;;;;;;;;6180912;28;20671;-72
2022/03/10 10:20:48;;;;;;;14.47;10.77;;;;;;;;;;6185579;28;20315;-68
2022/03/10 10:24:16;;;;;;;12.37;9.87;;;;;;;;;;6179770;28;20238;-68
2022/03/10 10:27:39;;;;;;;12.27;10.77;;;;;;;;;;6177115;28;20228;-70
2022/03/10 10:31:03;;;;;;;11.00;9.70;;;;;;;;;;6183311;28;20237;-70
2022/03/10 10:34:31;;;;;;;10.90;9.80;;;;;;;;;;6175598;28;20233;-70
2022/03/10 10:37:56;;;;;;;14.88;10.85;;;;;;;;;;6180459;28;20571;-71
2022/03/10 10:41:19;;;;;;;10.38;9.23;;;;;;;;;;6178009;28;20237;-70
2022/03/10 10:44:41;;;;;;;11.68;10.45;;;;;;;;;;6179565;28;20231;-71
2022/03/10 10:48:05;;;;;;;11.02;9.90;;;;;;;;;;6180477;28;20234;-71
2022/03/10 10:51:29;;;;;;;10.32;9.32;;;;;;;;;;6176406;28;20255;-70
2022/03/10 10:54:50;;;;;;;11.35;10.25;;;;;;;;;;6181708;28;20599;-67
2022/03/10 10:58:11;;;;;;;11.27;10.07;;;;;;;;;;6184566;28;20242;-68
2022/03/10 11:01:35;;;;;;;11.57;10.27;;;;;;;;;;6181575;28;20234;-70
2022/03/10 11:04:58;;;;;;;11.50;9.80;;;;;;;;;;6185397;28;20226;-70
2022/03/10 11:08:20;;;;;;;11.32;10.23;;;;;;;;;;6181660;28;20583;-69
2022/03/10 11:11:41;;;;;;;11.48;10.38;;;;;;;;;;6179251;28;20312;-68
2022/03/10 11:15:02;;;;;;;11.00;10.10;;;;;;;;;;6169089;28;20230;-68
2022/03/10 11:18:24;;;;;;;9.85;8.95;;;;;;;;;;6177469;28;20230;-68
2022/03/10 11:22:01;;;;;;;9.43;8.55;;;;;;;;;;6182008;28;20238;-68
2022/03/10 11:25:32;;;;;;;10.65;9.60;;;;;;;;;;6177744;28;20234;-68
2022/03/10 11:28:55;;;;;;;9.60;8.70;;;;;;;;;;6177908;28;20237;-67
2022/03/10 11:32:16;;;;;;;10.85;9.85;;;;;;;;;;6173477;28;20245;-69
2022/03/10 11:35:41;;;;;;;12.13;10.77;;;;;;;;;;6178425;28;20249;-68
2022/03/10 11:39:06;;;;;;;10.48;9.55;;;;;;;;;;6182632;28;20603;-68
2022/03/10 11:42:29;;;;;;;12.00;10.27;;;;;;;;;;6177731;28;20333;-69
2022/03/10 11:45:49;;;;;;;10.35;9.25;;;;;;;;;;6172236;28;20238;-69
2022/03/10 11:49:12;;;;;;;10.95;9.77;;;;;;;;;;6174795;28;20229;-69
2022/03/10 11:52:41;;;;;;;10.07;9.18;;;;;;;;;;6178347;28;20249;-69
2022/03/10 11:56:04;;;;;;;11.18;10.18;;;;;;;;;;6181615;28;20229;-69
2022/03/10 11:59:26;;;;;;;11.45;10.25;;;;;;;;;;6181790;28;20238;-70
2022/03/10 12:02:47;;;;;;;10.15;9.15;;;;;;;;;;6177579;28;20233;-70
2022/03/10 12:06:08;;;;;;;10.10;9.10;;;;;;;;;;6177504;28;20325;-71
2022/03/10 12:09:30;;;;;;;8.77;7.93;;;;;;;;;;6179269;28;20253;-71
2022/03/10 12:12:53;;;;;;;10.82;9.93;;;;;;;;;;6180774;28;20324;-69
2022/03/10 12:16:40;;;;;;;9.65;8.85;;;;;;;;;;6170833;28;20673;-71
2022/03/10 12:20:16;;;;;;;11.18;10.07;;;;;;;;;;6179388;28;20225;-70
2022/03/10 12:23:51;;;;;;;10.88;9.75;;;;;;;;;;6176739;28;20249;-71
2022/03/10 12:27:12;;;;;;;11.82;9.82;;;;;;;;;;6182481;28;20226;-70
2022/03/10 12:30:40;;;;;;;11.27;9.25;;;;;;;;;;6179790;28;20229;-69
2022/03/10 12:34:02;;;;;;;11.52;10.35;;;;;;;;;;6179606;28;20225;-69
2022/03/10 12:37:24;;;;;;;9.77;8.98;;;;;;;;;;6181141;28;20221;-69
2022/03/10 12:40:47;;;;;;;8.52;7.57;;;;;;;;;;6180190;28;20772;-69
2022/03/10 12:44:09;;;;;;;7.80;7.10;;;;;;;;;;6182640;28;20234;-69
2022/03/10 12:47:31;;;;;;;8.50;7.70;;;;;;;;;;6175017;28;20237;-68
2022/03/10 12:50:54;;;;;;;9.90;8.90;;;;;;;;;;6175559;28;20226;-70
2022/03/10 12:54:16;;;;;;;9.63;8.82;;;;;;;;;;6178218;28;20236;-69
2022/03/10 12:57:37;;;;;;;8.57;7.78;;;;;;;;;;6175367;28;20237;-69
2022/03/10 13:01:05;;;;;;;9.13;8.25;;;;;;;;;;6178581;28;20230;-69
2022/03/10 13:04:27;;;;;;;10.00;8.93;;;;;;;;;;6177042;28;20230;-71
2022/03/10 13:07:48;;;;;;;9.57;8.68;;;;;;;;;;6168455;28;20804;-69
2022/03/10 13:11:09;;;;;;;10.05;9.20;;;;;;;;;;6175676;28;20237;-70
2022/03/10 13:14:30;;;;;;;9.80;8.90;;;;;;;;;;6178274;28;20308;-68
2022/03/10 13:17:52;;;;;;;9.60;8.70;;;;;;;;;;6177491;28;20229;-71
2022/03/10 13:21:17;;;;;;;9.48;8.68;;;;;;;;;;6179900;28;20467;-69
2022/03/10 13:24:41;;;;;;;10.45;8.98;;;;;;;;;;6181048;28;20234;-68
2022/03/10 13:28:04;;;;;;;10.60;9.52;;;;;;;;;;6178259;28;20234;-68
2022/03/10 13:31:28;;;;;;;10.43;8.77;;;;;;;;;;6178787;28;20218;-72
2022/03/10 13:34:50;;;;;;;10.02;8.20;;;;;;;;;;6178006;28;20245;-71
2022/03/10 13:38:18;;;;;;;10.38;8.55;;;;;;;;;;6176574;28;20238;-69
2022/03/10 13:41:39;;;;;;;7.80;7.10;;;;;;;;;;6179036;28;20238;-68
2022/03/10 13:45:07;;;;;;;10.90;9.77;;;;;;;;;;6173581;28;20235;-72
2022/03/10 13:48:28;;;;;;;8.70;7.60;;;;;;;;;;6176373;28;20487;-73
2022/03/10 13:51:51;;;;;;;10.43;9.27;;;;;;;;;;6175257;28;20230;-72
2022/03/10 13:55:13;;;;;;;11.98;9.73;;;;;;;;;;6176941;28;20218;-69
2022/03/10 13:58:34;;;;;;;9.88;8.88;;;;;;;;;;6175901;28;20241;-69
2022/03/10 14:01:54;;;;;;;9.25;8.18;;;;;;;;;;6179854;28;20258;-69
2022/03/10 14:05:16;;;;;;;9.77;8.95;;;;;;;;;;6177596;28;20334;-71
2022/03/10 14:08:47;;;;;;;9.48;8.45;;;;;;;;;;6175762;28;22649;-70
2022/03/10 14:12:15;;;;;;;11.70;9.95;;;;;;;;;;6177459;28;20242;-69
2022/03/10 14:15:38;;;;;;;10.73;9.63;;;;;;;;;;6174676;28;20610;-68
2022/03/10 14:18:59;;;;;;;10.75;9.32;;;;;;;;;;6175762;28;20230;-70
2022/03/10 14:22:21;;;;;;;10.50;9.38;;;;;;;;;;6175466;28;20226;-70
2022/03/10 14:25:44;;;;;;;10.95;9.10;;;;;;;;;;6175479;28;20226;-69
2022/03/10 14:29:06;;;;;;;13.57;10.70;;;;;;;;;;6175063;28;20469;-70
2022/03/10 14:32:28;;;;;;;12.35;10.85;;;;;;;;;;6175293;28;20225;-70
2022/03/10 14:35:49;;;;;;;11.43;10.32;;;;;;;;;;6176564;28;20229;-67
2022/03/10 14:39:10;;;;;;;12.52;9.77;;;;;;;;;;6177642;28;20313;-69
2022/03/10 14:42:30;;;;;;;10.30;9.25;;;;;;;;;;6178044;28;20227;-67
2022/03/10 14:45:53;;;;;;;11.48;10.27;;;;;;;;;;6166901;28;20227;-70
2022/03/10 14:49:14;;;;;;;13.45;10.00;;;;;;;;;;6180948;28;20501;-69
2022/03/10 14:52:34;;;;;;;10.10;9.10;;;;;;;;;;6179766;28;20965;-72
2022/03/10 14:55:55;;;;;;;9.85;8.85;;;;;;;;;;6182353;28;20238;-71
2022/03/10 14:59:17;;;;;;;9.27;8.38;;;;;;;;;;6181982;28;20226;-69
2022/03/10 15:02:39;;;;;;;10.77;8.85;;;;;;;;;;6175098;28;22774;-70
2022/03/10 15:06:00;;;;;;;10.00;8.57;;;;;;;;;;6180988;28;20620;-69
2022/03/10 15:09:21;;;;;;;8.23;7.43;;;;;;;;;;6179858;28;20317;-68
2022/03/10 15:12:42;;;;;;;8.57;7.67;;;;;;;;;;6183619;28;20492;-68
2022/03/10 15:16:03;;;;;;;9.87;8.43;;;;;;;;;;6170019;28;20230;-70
2022/03/10 15:19:26;;;;;;;8.57;7.77;;;;;;;;;;6164880;28;20250;-70
2022/03/10 15:22:57;;;;;;;9.03;7.07;;;;;;;;;;6172577;28;20325;-71
2022/03/10 15:26:18;;;;;;;7.47;6.77;;;;;;;;;;6177238;28;20313;-70
2022/03/10 15:29:39;;;;;;;6.87;6.27;;;;;;;;;;6179314;28;20257;-69
2022/03/10 15:33:00;;;;;;;8.67;7.40;;;;;;;;;;6182619;28;20226;-70
2022/03/10 15:36:22;;;;;;;6.50;5.90;;;;;;;;;;6185445;28;20230;-71
2022/03/10 15:39:45;;;;;;;9.57;6.43;;;;;;;;;;6186847;28;20230;-71
2022/03/10 15:43:06;;;;;;;6.73;6.07;;;;;;;;;;6176785;28;20229;-70
2022/03/10 15:46:27;;;;;;;8.10;6.43;;;;;;;;;;6180074;28;20241;-70
2022/03/10 15:49:50;;;;;;;7.90;6.67;;;;;;;;;;6176071;28;20230;-71
2022/03/10 15:53:14;;;;;;;8.00;7.30;;;;;;;;;;6181513;28;20233;-70
2022/03/10 15:56:35;;;;;;;10.77;7.57;;;;;;;;;;6176434;28;20771;-71
2022/03/10 15:59:57;;;;;;;7.97;6.77;;;;;;;;;;6181263;28;20235;-70
2022/03/10 16:03:19;;;;;;;9.07;7.40;;;;;;;;;;6178387;28;20257;-71
2022/03/10 16:06:40;;;;;;;8.33;7.43;;;;;;;;;;6174710;28;20234;-71
2022/03/10 16:10:02;;;;;;;8.53;7.73;;;;;;;;;;6181912;28;20234;-71
2022/03/10 16:13:23;;;;;;;12.03;8.17;;;;;;;;;;6170688;28;20230;-71
2022/03/10 16:16:44;;;;;;;9.00;8.10;;;;;;;;;;6173541;28;20746;-71
2022/03/10 16:20:06;;;;;;;9.00;8.00;;;;;;;;;;6175741;28;20226;-70
2022/03/10 16:23:27;;;;;;;9.73;8.73;;;;;;;;;;6178264;28;20237;-71
2022/03/10 16:26:51;;;;;;;9.70;8.70;;;;;;;;;;6180310;28;20226;-71
2022/03/10 16:30:13;;;;;;;9.40;8.37;;;;;;;;;;6174110;28;20237;-74
2022/03/10 16:33:33;;;;;;;10.13;9.03;;;;;;;;;;6171733;28;20325;-70
2022/03/10 16:36:55;;;;;;;10.47;9.23;;;;;;;;;;6175451;28;20230;-70
2022/03/10 16:40:19;;;;;;;9.00;8.10;;;;;;;;;;6178846;28;20229;-70
2022/03/10 16:43:41;;;;;;;11.90;8.07;;;;;;;;;;6183485;28;20238;-70
2022/03/10 16:47:02;;;;;;;8.97;7.40;;;;;;;;;;6178519;28;20257;-71
2022/03/10 16:50:24;;;;;;;9.73;8.57;;;;;;;;;;6173733;28;20226;-70
2022/03/10 16:53:47;;;;;;;12.00;10.43;;;;;;;;;;6176539;28;20318;-70
2022/03/10 16:57:07;;;;;;;12.73;10.60;;;;;;;;;;6170119;28;20238;-71
2022/03/10 17:00:29;;;;;;;10.73;9.63;;;;;;;;;;6174843;28;20237;-69
2022/03/10 17:03:50;;;;;;;16.37;12.27;;;;;;;;;;6174916;28;20233;-70
2022/03/10 17:07:12;;;;;;;12.60;11.33;;;;;;;;;;6171436;28;20604;-71
2022/03/10 17:10:33;;;;;;;13.27;11.23;;;;;;;;;;6179981;28;20266;-72
2022/03/10 17:13:53;;;;;;;13.47;11.53;;;;;;;;;;6174602;28;20229;-71
2022/03/10 17:17:16;;;;;;;14.40;12.03;;;;;;;;;;6174927;28;20281;-71
2022/03/10 17:20:37;;;;;;;12.63;10.07;;;;;;;;;;6173698;28;20230;-71
2022/03/10 17:23:59;;;;;;;12.90;11.47;;;;;;;;;;6170478;28;20230;-69
2022/03/10 17:27:20;;;;;;;13.17;10.50;;;;;;;;;;6175418;28;20233;-70
2022/03/10 17:30:41;;;;;;;13.13;11.17;;;;;;;;;;6174741;28;21937;-71
2022/03/10 17:34:03;;;;;;;15.43;12.10;;;;;;;;;;6178644;28;20229;-71
2022/03/10 17:37:27;;;;;;;12.77;10.90;;;;;;;;;;6177659;28;20596;-71
2022/03/10 17:40:49;;;;;;;13.13;11.70;;;;;;;;;;6178850;28;20248;-70
2022/03/10 17:44:10;;;;;;;17.90;13.03;;;;;;;;;;6176127;28;20242;-69
2022/03/10 17:47:31;;;;;;;13.20;11.80;;;;;;;;;;6177727;28;20325;-70
2022/03/10 17:50:54;;;;;;;14.93;12.77;;;;;;;;;;6173857;28;20530;-71
2022/03/10 17:54:15;;;;;;;16.43;13.87;;;;;;;;;;6177570;28;20312;-71
2022/03/10 17:57:36;;;;;;;15.20;13.60;;;;;;;;;;6175170;28;20230;-71
2022/03/10 18:00:57;;;;;;;14.60;13.13;;;;;;;;;;6165553;28;20231;-70
2022/03/10 18:04:19;;;;;;;16.83;14.90;;;;;;;;;;6174033;28;20237;-70
2022/03/10 18:07:41;;;;;;;15.17;13.67;;;;;;;;;;6173884;28;22498;-70
2022/03/10 18:11:02;;;;;;;15.00;13.37;;;;;;;;;;6181314;28;20435;-71
2022/03/10 18:14:23;;;;;;;15.33;13.83;;;;;;;;;;6176753;28;20335;-71
2022/03/10 18:17:44;;;;;;;17.83;14.80;;;;;;;;;;6177932;28;20230;-70
2022/03/10 18:21:05;;;;;;;15.73;14.23;;;;;;;;;;6177425;28;20226;-70
2022/03/10 18:24:29;;;;;;;17.27;15.53;;;;;;;;;;6180870;28;20238;-71
2022/03/10 18:27:50;;;;;;;16.77;15.13;;;;;;;;;;6180898;28;20230;-70
2022/03/10 18:31:12;;;;;;;15.40;13.80;;;;;;;;;;6178915;28;21137;-70
2022/03/10 18:34:34;;;;;;;18.10;15.43;;;;;;;;;;6183776;28;20229;-74
2022/03/10 18:37:55;;;;;;;17.33;15.13;;;;;;;;;;6179230;28;20230;-70
2022/03/10 18:41:17;;;;;;;16.30;14.67;;;;;;;;;;6183821;28;20238;-70
2022/03/10 18:44:39;;;;;;;17.87;16.13;;;;;;;;;;6185839;28;20300;-69
2022/03/10 18:48:00;;;;;;;17.77;16.07;;;;;;;;;;6181776;28;20230;-69
2022/03/10 18:51:21;;;;;;;18.40;16.47;;;;;;;;;;6179694;28;20260;-71
2022/03/10 18:54:42;;;;;;;18.07;16.27;;;;;;;;;;6179719;28;20235;-69
2022/03/10 18:58:04;;;;;;;19.50;17.43;;;;;;;;;;6173281;28;20241;-69
2022/03/10 19:01:26;;;;;;;18.10;16.20;;;;;;;;;;6167602;28;20230;-70
2022/03/10 19:04:47;;;;;;;20.10;18.00;;;;;;;;;;6175670;28;20612;-69
2022/03/10 19:08:08;;;;;;;18.03;16.07;;;;;;;;;;6177030;28;20515;-69
2022/03/10 19:11:29;;;;;;;17.23;15.40;;;;;;;;;;6174804;28;20365;-71
2022/03/10 19:14:51;;;;;;;18.83;16.93;;;;;;;;;;6151340;28;20228;-71
2022/03/10 19:18:12;;;;;;;17.20;15.23;;;;;;;;;;6152561;28;20848;-71
2022/03/10 19:21:37;;;;;;;18.27;16.43;;;;;;;;;;6148993;28;20293;-74
2022/03/10 19:24:58;;;;;;;17.53;15.83;;;;;;;;;;6146692;28;20230;-74
2022/03/10 19:28:19;;;;;;;17.60;15.93;;;;;;;;;;6155414;28;20218;-73
2022/03/10 19:31:42;;;;;;;18.33;16.53;;;;;;;;;;6153220;28;20246;-73
2022/03/10 19:35:03;;;;;;;17.60;15.90;;;;;;;;;;6159199;28;20384;-74
2022/03/10 19:38:24;;;;;;;19.60;17.33;;;;;;;;;;6156823;28;20222;-73
2022/03/10 19:41:45;;;;;;;16.57;15.03;;;;;;;;;;6155939;28;20231;-70
2022/03/10 19:45:07;;;;;;;18.20;16.47;;;;;;;;;;6155250;28;20585;-71
2022/03/10 19:48:29;;;;;;;18.07;16.17;;;;;;;;;;6149842;28;20974;-70
2022/03/10 19:51:53;;;;;;;18.00;16.13;;;;;;;;;;6146844;28;20230;-69